sensor_id;sensor_type;location;lat;lon;timestamp;pressure;altitude;pressure_sealevel;temperature;humidity
52735;BME280;38631;47.572;10.704;2023-03-31T00:01:04;92158.88;;;7.68;89.91
52735;BME280;38631;47.572;10.704;2023-03-31T00:03:29;92152.00;;;7.81;89.95
52735;BME280;38631;47.572;10.704;2023-03-31T00:05:58;92159.28;;;7.75;89.09
52735;BME280;38631;47.572;10.704;2023-03-31T00:08:26;92172.88;;;7.83;89.34
52735;BME280;38631;47.572;10.704;2023-03-31T00:10:58;92171.88;;;7.78;91.12
52735;BME280;38631;47.572;10.704;2023-03-31T00:13:28;92175.13;;;7.75;91.78
52735;BME280;38631;47.572;10.704;2023-03-31T00:16:01;92162.34;;;7.55;91.47
52735;BME280;38631;47.572;10.704;2023-03-31T00:18:27;92164.28;;;7.63;90.71
52735;BME280;38631;47.572;10.704;2023-03-31T00:20:54;92155.53;;;7.76;90.02
52735;BME280;38631;47.572;10.704;2023-03-31T00:23:22;92156.63;;;7.62;88.98
52735;BME280;38631;47.572;10.704;2023-03-31T00:25:52;92139.31;;;7.42;89.92
52735;BME280;38631;47.572;10.704;2023-03-31T00:28:17;92140.88;;;7.56;89.81
52735;BME280;38631;47.572;10.704;2023-03-31T00:30:43;92135.81;;;7.60;90.13
52735;BME280;38631;47.572;10.704;2023-03-31T00:33:08;92125.22;;;7.60;89.05
52735;BME280;38631;47.572;10.704;2023-03-31T00:35:34;92116.59;;;7.68;88.88
52735;BME280;38631;47.572;10.704;2023-03-31T00:37:59;92112.41;;;7.53;89.29
52735;BME280;38631;47.572;10.704;2023-03-31T00:40:25;92109.22;;;7.43;88.26
52735;BME280;38631;47.572;10.704;2023-03-31T00:42:50;92111.31;;;7.54;88.84
52735;BME280;38631;47.572;10.704;2023-03-31T00:47:43;92101.97;;;7.48;87.26
52735;BME280;38631;47.572;10.704;2023-03-31T00:50:26;92090.13;;;7.46;88.67
52735;BME280;38631;47.572;10.704;2023-03-31T00:53:07;92088.47;;;7.50;88.27
52735;BME280;38631;47.572;10.704;2023-03-31T00:55:40;92086.00;;;7.53;87.13
52735;BME280;38631;47.572;10.704;2023-03-31T00:58:08;92088.47;;;7.36;88.61
52735;BME280;38631;47.572;10.704;2023-03-31T01:00:38;92092.41;;;7.25;89.77
52735;BME280;38631;47.572;10.704;2023-03-31T01:03:06;92085.81;;;7.36;90.03
52735;BME280;38631;47.572;10.704;2023-03-31T01:05:55;92074.69;;;7.25;89.30
52735;BME280;38631;47.572;10.704;2023-03-31T01:08:25;92073.25;;;7.05;91.22
52735;BME280;38631;47.572;10.704;2023-03-31T01:10:55;92069.09;;;7.27;90.64
52735;BME280;38631;47.572;10.704;2023-03-31T01:13:21;92069.97;;;7.22;89.98
52735;BME280;38631;47.572;10.704;2023-03-31T01:15:47;92058.84;;;7.25;90.26
52735;BME280;38631;47.572;10.704;2023-03-31T01:18:14;92052.91;;;6.78;91.76
52735;BME280;38631;47.572;10.704;2023-03-31T01:21:27;92060.03;;;7.05;92.66
52735;BME280;38631;47.572;10.704;2023-03-31T01:24:48;92054.44;;;7.07;92.07
52735;BME280;38631;47.572;10.704;2023-03-31T01:27:38;92045.47;;;7.08;91.70
52735;BME280;38631;47.572;10.704;2023-03-31T01:30:32;92050.22;;;7.20;92.30
52735;BME280;38631;47.572;10.704;2023-03-31T01:47:32;92025.50;;;7.16;92.16
52735;BME280;38631;47.572;10.704;2023-03-31T01:50:09;92020.50;;;7.28;91.65
52735;BME280;38631;47.572;10.704;2023-03-31T01:55:29;92020.09;;;7.34;92.48
52735;BME280;38631;47.572;10.704;2023-03-31T02:00:51;92008.75;;;7.34;92.29
52735;BME280;38631;47.572;10.704;2023-03-31T02:03:23;92001.31;;;7.36;91.87
52735;BME280;38631;47.572;10.704;2023-03-31T02:05:54;91991.25;;;7.24;91.77
52735;BME280;38631;47.572;10.704;2023-03-31T02:08:31;91997.63;;;7.23;90.77
52735;BME280;38631;47.572;10.704;2023-03-31T02:11:00;91990.03;;;7.08;90.96
52735;BME280;38631;47.572;10.704;2023-03-31T02:13:26;92004.00;;;7.08;92.05
52735;BME280;38631;47.572;10.704;2023-03-31T02:16:05;92003.13;;;6.99;92.07
52735;BME280;38631;47.572;10.704;2023-03-31T02:18:33;92012.03;;;7.03;93.47
52735;BME280;38631;47.572;10.704;2023-03-31T02:21:05;92001.69;;;6.79;94.48
52735;BME280;38631;47.572;10.704;2023-03-31T02:23:31;91984.59;;;6.90;93.35
52735;BME280;38631;47.572;10.704;2023-03-31T02:26:07;91981.94;;;6.77;93.70
52735;BME280;38631;47.572;10.704;2023-03-31T02:28:34;91970.44;;;6.73;96.17
52735;BME280;38631;47.572;10.704;2023-03-31T02:33:34;91955.84;;;6.89;94.45
52735;BME280;38631;47.572;10.704;2023-03-31T02:36:00;91949.19;;;7.05;94.74
52735;BME280;38631;47.572;10.704;2023-03-31T02:38:26;91935.97;;;7.05;93.75
52735;BME280;38631;47.572;10.704;2023-03-31T02:40:52;91945.94;;;6.95;93.19
52735;BME280;38631;47.572;10.704;2023-03-31T02:43:18;91947.44;;;6.87;94.09
52735;BME280;38631;47.572;10.704;2023-03-31T02:45:45;91940.59;;;7.00;94.36
52735;BME280;38631;47.572;10.704;2023-03-31T02:48:18;91940.88;;;6.98;94.22
52735;BME280;38631;47.572;10.704;2023-03-31T03:13:49;91931.75;;;7.04;91.59
52735;BME280;38631;47.572;10.704;2023-03-31T03:16:29;91924.75;;;7.00;92.11
52735;BME280;38631;47.572;10.704;2023-03-31T03:19:00;91930.59;;;6.97;92.66
52735;BME280;38631;47.572;10.704;2023-03-31T03:21:26;91932.97;;;6.84;93.68
52735;BME280;38631;47.572;10.704;2023-03-31T03:23:52;91924.50;;;6.74;94.14
52735;BME280;38631;47.572;10.704;2023-03-31T03:26:18;91925.59;;;6.73;94.04
52735;BME280;38631;47.572;10.704;2023-03-31T03:28:48;91924.75;;;6.49;95.96
52735;BME280;38631;47.572;10.704;2023-03-31T03:31:14;91927.56;;;6.53;96.07
52735;BME280;38631;47.572;10.704;2023-03-31T03:33:40;91927.81;;;6.79;95.06
52735;BME280;38631;47.572;10.704;2023-03-31T03:36:06;91928.91;;;6.64;95.73
52735;BME280;38631;47.572;10.704;2023-03-31T03:38:31;91920.53;;;6.62;95.90
52735;BME280;38631;47.572;10.704;2023-03-31T03:40:57;91912.88;;;6.75;96.13
52735;BME280;38631;47.572;10.704;2023-03-31T03:43:22;91900.53;;;6.84;95.40
52735;BME280;38631;47.572;10.704;2023-03-31T03:45:48;91910.19;;;6.88;95.22
52735;BME280;38631;47.572;10.704;2023-03-31T03:48:14;91904.16;;;6.88;95.15
52735;BME280;38631;47.572;10.704;2023-03-31T03:50:39;91908.59;;;7.01;95.37
52735;BME280;38631;47.572;10.704;2023-03-31T03:53:05;91902.34;;;6.75;95.86
52735;BME280;38631;47.572;10.704;2023-03-31T03:55:31;91904.47;;;6.73;96.74
52735;BME280;38631;47.572;10.704;2023-03-31T03:57:56;91906.03;;;6.74;97.16
52735;BME280;38631;47.572;10.704;2023-03-31T04:00:21;91892.25;;;6.77;96.44
52735;BME280;38631;47.572;10.704;2023-03-31T04:02:47;91888.44;;;6.69;96.56
52735;BME280;38631;47.572;10.704;2023-03-31T04:05:12;91878.47;;;6.30;97.81
52735;BME280;38631;47.572;10.704;2023-03-31T04:07:38;91869.34;;;6.36;97.64
52735;BME280;38631;47.572;10.704;2023-03-31T04:10:03;91863.25;;;6.63;97.43
52735;BME280;38631;47.572;10.704;2023-03-31T04:12:29;91848.28;;;6.72;96.97
52735;BME280;38631;47.572;10.704;2023-03-31T04:14:54;91847.28;;;6.82;96.96
52735;BME280;38631;47.572;10.704;2023-03-31T04:17:19;91833.63;;;6.80;96.58
52735;BME280;38631;47.572;10.704;2023-03-31T04:19:56;91809.03;;;6.57;95.54
52735;BME280;38631;47.572;10.704;2023-03-31T04:22:27;91803.53;;;6.67;96.12
52735;BME280;38631;47.572;10.704;2023-03-31T04:24:53;91789.34;;;6.77;97.08
52735;BME280;38631;47.572;10.704;2023-03-31T04:27:23;91775.25;;;6.59;96.12
52735;BME280;38631;47.572;10.704;2023-03-31T04:29:52;91769.69;;;6.60;96.32
52735;BME280;38631;47.572;10.704;2023-03-31T04:32:19;91764.19;;;6.57;97.24
52735;BME280;38631;47.572;10.704;2023-03-31T04:34:46;91761.69;;;6.52;96.45
52735;BME280;38631;47.572;10.704;2023-03-31T04:37:12;91746.69;;;6.38;96.42
52735;BME280;38631;47.572;10.704;2023-03-31T04:39:37;91745.03;;;6.42;96.65
52735;BME280;38631;47.572;10.704;2023-03-31T04:42:03;91733.09;;;6.45;97.04
52735;BME280;38631;47.572;10.704;2023-03-31T04:44:28;91726.50;;;6.34;96.04
52735;BME280;38631;47.572;10.704;2023-03-31T04:46:54;91718.19;;;6.40;95.39
52735;BME280;38631;47.572;10.704;2023-03-31T04:49:20;91700.00;;;6.39;95.33
52735;BME280;38631;47.572;10.704;2023-03-31T04:51:45;91693.91;;;6.30;94.76
52735;BME280;38631;47.572;10.704;2023-03-31T04:54:11;91679.16;;;5.92;96.44
52735;BME280;38631;47.572;10.704;2023-03-31T04:56:37;91673.31;;;5.95;95.85
52735;BME280;38631;47.572;10.704;2023-03-31T04:59:02;91670.16;;;5.93;96.41
52735;BME280;38631;47.572;10.704;2023-03-31T05:01:28;91679.69;;;6.17;96.63
52735;BME280;38631;47.572;10.704;2023-03-31T05:03:58;91675.50;;;6.16;95.93
52735;BME280;38631;47.572;10.704;2023-03-31T05:06:23;91671.00;;;6.16;95.08
52735;BME280;38631;47.572;10.704;2023-03-31T05:08:49;91661.53;;;6.15;95.54
52735;BME280;38631;47.572;10.704;2023-03-31T05:11:14;91657.44;;;6.09;96.07
52735;BME280;38631;47.572;10.704;2023-03-31T05:13:39;91645.25;;;6.13;94.43
52735;BME280;38631;47.572;10.704;2023-03-31T05:16:09;91655.31;;;6.34;93.72
52735;BME280;38631;47.572;10.704;2023-03-31T05:18:36;91648.50;;;6.33;94.05
52735;BME280;38631;47.572;10.704;2023-03-31T05:23:37;91646.22;;;6.40;93.68
52735;BME280;38631;47.572;10.704;2023-03-31T05:26:03;91619.53;;;5.96;96.87
52735;BME280;38631;47.572;10.704;2023-03-31T05:28:28;91599.94;;;6.11;96.22
52735;BME280;38631;47.572;10.704;2023-03-31T05:30:54;91609.84;;;5.92;96.38
52735;BME280;38631;47.572;10.704;2023-03-31T05:33:19;91596.72;;;6.14;95.98
52735;BME280;38631;47.572;10.704;2023-03-31T05:35:45;91593.50;;;6.17;95.27
52735;BME280;38631;47.572;10.704;2023-03-31T05:38:10;91586.59;;;6.30;95.13
52735;BME280;38631;47.572;10.704;2023-03-31T05:40:36;91579.56;;;6.48;90.90
52735;BME280;38631;47.572;10.704;2023-03-31T05:43:01;91580.56;;;6.07;93.80
52735;BME280;38631;47.572;10.704;2023-03-31T05:45:26;91574.78;;;6.27;92.23
52735;BME280;38631;47.572;10.704;2023-03-31T05:47:52;91550.03;;;7.69;77.07
52735;BME280;38631;47.572;10.704;2023-03-31T05:50:17;91543.63;;;8.14;73.94
52735;BME280;38631;47.572;10.704;2023-03-31T05:52:43;91514.72;;;8.64;69.62
52735;BME280;38631;47.572;10.704;2023-03-31T05:55:08;91515.69;;;8.98;67.42
52735;BME280;38631;47.572;10.704;2023-03-31T05:57:34;91512.75;;;8.91;67.48
52735;BME280;38631;47.572;10.704;2023-03-31T05:59:59;91517.72;;;7.46;82.75
52735;BME280;38631;47.572;10.704;2023-03-31T06:02:25;91514.25;;;7.02;88.11
52735;BME280;38631;47.572;10.704;2023-03-31T06:04:50;91506.91;;;8.12;73.75
52735;BME280;38631;47.572;10.704;2023-03-31T06:07:16;91493.88;;;8.93;67.10
52735;BME280;38631;47.572;10.704;2023-03-31T06:09:42;91486.91;;;8.88;67.89
52735;BME280;38631;47.572;10.704;2023-03-31T06:12:07;91479.78;;;8.80;68.83
52735;BME280;38631;47.572;10.704;2023-03-31T06:14:33;91475.28;;;8.80;67.41
52735;BME280;38631;47.572;10.704;2023-03-31T06:16:58;91497.25;;;9.02;66.16
52735;BME280;38631;47.572;10.704;2023-03-31T06:19:23;91502.78;;;9.18;65.05
52735;BME280;38631;47.572;10.704;2023-03-31T06:21:49;91493.47;;;9.33;64.12
52735;BME280;38631;47.572;10.704;2023-03-31T06:24:15;91485.03;;;9.18;64.77
52735;BME280;38631;47.572;10.704;2023-03-31T06:26:40;91489.88;;;9.16;66.69
52735;BME280;38631;47.572;10.704;2023-03-31T06:29:05;91490.06;;;9.11;66.91
52735;BME280;38631;47.572;10.704;2023-03-31T06:31:31;91481.97;;;9.07;67.62
52735;BME280;38631;47.572;10.704;2023-03-31T06:33:56;91493.25;;;9.25;66.76
52735;BME280;38631;47.572;10.704;2023-03-31T06:36:22;91483.16;;;9.40;65.99
52735;BME280;38631;47.572;10.704;2023-03-31T06:38:48;91467.19;;;9.48;65.68
52735;BME280;38631;47.572;10.704;2023-03-31T06:41:14;91466.41;;;9.48;66.21
52735;BME280;38631;47.572;10.704;2023-03-31T06:43:40;91477.00;;;9.27;68.23
52735;BME280;38631;47.572;10.704;2023-03-31T06:46:06;91469.53;;;9.29;66.92
52735;BME280;38631;47.572;10.704;2023-03-31T06:48:32;91488.56;;;9.22;67.76
52735;BME280;38631;47.572;10.704;2023-03-31T06:51:02;91473.72;;;9.51;66.21
52735;BME280;38631;47.572;10.704;2023-03-31T06:53:28;91470.81;;;9.44;67.02
52735;BME280;38631;47.572;10.704;2023-03-31T06:55:53;91490.63;;;9.80;67.20
52735;BME280;38631;47.572;10.704;2023-03-31T06:58:18;91488.88;;;9.84;67.99
52735;BME280;38631;47.572;10.704;2023-03-31T07:00:44;91492.97;;;9.81;68.59
52735;BME280;38631;47.572;10.704;2023-03-31T07:03:11;91497.84;;;9.58;71.98
52735;BME280;38631;47.572;10.704;2023-03-31T07:05:36;91509.69;;;9.73;71.09
52735;BME280;38631;47.572;10.704;2023-03-31T07:08:03;91525.09;;;9.80;72.25
52735;BME280;38631;47.572;10.704;2023-03-31T07:10:30;91496.66;;;9.68;73.30
52735;BME280;38631;47.572;10.704;2023-03-31T07:12:56;91476.09;;;9.86;72.15
52735;BME280;38631;47.572;10.704;2023-03-31T07:15:23;91493.16;;;9.76;72.92
52735;BME280;38631;47.572;10.704;2023-03-31T07:17:48;91486.84;;;9.68;72.55
52735;BME280;38631;47.572;10.704;2023-03-31T07:20:16;91505.25;;;9.65;72.94
52735;BME280;38631;47.572;10.704;2023-03-31T07:22:47;91511.13;;;9.49;73.33
52735;BME280;38631;47.572;10.704;2023-03-31T07:25:15;91516.44;;;9.28;75.26
52735;BME280;38631;47.572;10.704;2023-03-31T07:27:42;91516.84;;;9.09;78.64
52735;BME280;38631;47.572;10.704;2023-03-31T07:30:11;91518.03;;;8.91;80.35
52735;BME280;38631;47.572;10.704;2023-03-31T07:32:37;91487.41;;;8.81;82.71
52735;BME280;38631;47.572;10.704;2023-03-31T07:35:06;91484.00;;;8.81;83.55
52735;BME280;38631;47.572;10.704;2023-03-31T07:37:39;91488.53;;;8.80;85.19
52735;BME280;38631;47.572;10.704;2023-03-31T07:40:07;91492.28;;;8.71;85.46
52735;BME280;38631;47.572;10.704;2023-03-31T07:42:33;91505.66;;;8.74;84.36
52735;BME280;38631;47.572;10.704;2023-03-31T07:44:59;91475.63;;;8.70;85.22
52735;BME280;38631;47.572;10.704;2023-03-31T07:47:25;91492.59;;;8.69;85.34
52735;BME280;38631;47.572;10.704;2023-03-31T07:49:51;91512.59;;;8.58;86.36
52735;BME280;38631;47.572;10.704;2023-03-31T07:52:17;91546.19;;;8.66;86.70
52735;BME280;38631;47.572;10.704;2023-03-31T07:54:46;91577.94;;;8.57;85.12
52735;BME280;38631;47.572;10.704;2023-03-31T07:57:11;91556.59;;;8.62;84.48
52735;BME280;38631;47.572;10.704;2023-03-31T07:59:38;91530.66;;;8.56;86.54
52735;BME280;38631;47.572;10.704;2023-03-31T08:02:03;91516.19;;;8.53;88.75
52735;BME280;38631;47.572;10.704;2023-03-31T08:04:29;91507.91;;;8.55;90.85
52735;BME280;38631;47.572;10.704;2023-03-31T08:06:54;91509.47;;;8.56;91.36
52735;BME280;38631;47.572;10.704;2023-03-31T08:09:19;91502.91;;;8.62;89.91
52735;BME280;38631;47.572;10.704;2023-03-31T08:11:47;91512.25;;;8.68;89.60
52735;BME280;38631;47.572;10.704;2023-03-31T08:14:12;91531.66;;;8.72;90.40
52735;BME280;38631;47.572;10.704;2023-03-31T08:16:38;91521.22;;;8.76;90.80
52735;BME280;38631;47.572;10.704;2023-03-31T08:19:03;91538.44;;;8.91;90.45
52735;BME280;38631;47.572;10.704;2023-03-31T08:21:28;91550.00;;;8.86;92.03
52735;BME280;38631;47.572;10.704;2023-03-31T08:23:55;91573.34;;;8.84;91.80
52735;BME280;38631;47.572;10.704;2023-03-31T08:26:21;91572.75;;;8.78;90.84
52735;BME280;38631;47.572;10.704;2023-03-31T08:28:48;91618.84;;;8.77;90.54
52735;BME280;38631;47.572;10.704;2023-03-31T08:31:15;91602.38;;;8.54;96.38
52735;BME280;38631;47.572;10.704;2023-03-31T08:33:42;91643.97;;;8.28;98.70
52735;BME280;38631;47.572;10.704;2023-03-31T08:36:09;91700.56;;;8.00;100.00
52735;BME280;38631;47.572;10.704;2023-03-31T08:38:35;91653.13;;;7.95;100.00
52735;BME280;38631;47.572;10.704;2023-03-31T08:41:09;91680.19;;;8.01;100.00
52735;BME280;38631;47.572;10.704;2023-03-31T08:43:40;91671.00;;;7.98;100.00
52735;BME280;38631;47.572;10.704;2023-03-31T08:46:10;91677.03;;;7.82;100.00
52735;BME280;38631;47.572;10.704;2023-03-31T08:48:42;91693.09;;;7.85;100.00
52735;BME280;38631;47.572;10.704;2023-03-31T08:51:15;91657.31;;;7.70;100.00
52735;BME280;38631;47.572;10.704;2023-03-31T08:53:46;91648.88;;;7.60;100.00
52735;BME280;38631;47.572;10.704;2023-03-31T08:56:14;91661.16;;;7.55;100.00
52735;BME280;38631;47.572;10.704;2023-03-31T08:58:45;91654.94;;;7.60;100.00
52735;BME280;38631;47.572;10.704;2023-03-31T09:10:09;91629.25;;;7.43;100.00
52735;BME280;38631;47.572;10.704;2023-03-31T09:12:53;91646.69;;;7.62;100.00
52735;BME280;38631;47.572;10.704;2023-03-31T09:15:31;91612.03;;;7.46;100.00
52735;BME280;38631;47.572;10.704;2023-03-31T09:18:03;91597.44;;;7.66;100.00
52735;BME280;38631;47.572;10.704;2023-03-31T09:20:36;91599.47;;;7.69;100.00
52735;BME280;38631;47.572;10.704;2023-03-31T09:23:28;91602.09;;;7.69;100.00
52735;BME280;38631;47.572;10.704;2023-03-31T09:25:57;91576.16;;;7.79;100.00
52735;BME280;38631;47.572;10.704;2023-03-31T09:28:43;91602.59;;;7.88;100.00
52735;BME280;38631;47.572;10.704;2023-03-31T09:31:16;91577.06;;;7.92;100.00
52735;BME280;38631;47.572;10.704;2023-03-31T09:33:45;91564.66;;;7.93;100.00
52735;BME280;38631;47.572;10.704;2023-03-31T09:36:16;91577.88;;;8.10;100.00
52735;BME280;38631;47.572;10.704;2023-03-31T09:38:43;91557.00;;;8.17;100.00
52735;BME280;38631;47.572;10.704;2023-03-31T09:41:10;91566.47;;;8.36;100.00
52735;BME280;38631;47.572;10.704;2023-03-31T09:43:37;91556.66;;;8.45;100.00
52735;BME280;38631;47.572;10.704;2023-03-31T09:49:13;91554.94;;;8.49;100.00
52735;BME280;38631;47.572;10.704;2023-03-31T09:51:44;91553.69;;;8.55;100.00
52735;BME280;38631;47.572;10.704;2023-03-31T09:54:20;91557.28;;;8.51;99.77
52735;BME280;38631;47.572;10.704;2023-03-31T09:56:49;91580.31;;;8.41;100.00
52735;BME280;38631;47.572;10.704;2023-03-31T09:59:45;91584.03;;;8.32;100.00
52735;BME280;38631;47.572;10.704;2023-03-31T10:04:45;91549.38;;;8.07;100.00
52735;BME280;38631;47.572;10.704;2023-03-31T10:07:11;91544.91;;;8.08;100.00
52735;BME280;38631;47.572;10.704;2023-03-31T10:09:37;91540.34;;;8.17;100.00
52735;BME280;38631;47.572;10.704;2023-03-31T10:12:06;91523.41;;;8.18;100.00
52735;BME280;38631;47.572;10.704;2023-03-31T10:14:53;91513.28;;;8.20;100.00
52735;BME280;38631;47.572;10.704;2023-03-31T10:17:21;91508.16;;;8.23;100.00
52735;BME280;38631;47.572;10.704;2023-03-31T10:19:58;91489.91;;;8.48;100.00
52735;BME280;38631;47.572;10.704;2023-03-31T10:22:29;91485.59;;;8.73;100.00
52735;BME280;38631;47.572;10.704;2023-03-31T10:25:08;91475.34;;;8.93;98.04
52735;BME280;38631;47.572;10.704;2023-03-31T10:27:38;91456.00;;;9.01;97.67
52735;BME280;38631;47.572;10.704;2023-03-31T10:30:09;91464.06;;;9.04;93.33
52735;BME280;38631;47.572;10.704;2023-03-31T10:32:40;91471.94;;;8.92;89.78
52735;BME280;38631;47.572;10.704;2023-03-31T10:37:40;91456.66;;;9.19;87.00
52735;BME280;38631;47.572;10.704;2023-03-31T10:40:14;91462.16;;;9.35;87.74
52735;BME280;38631;47.572;10.704;2023-03-31T10:42:45;91445.16;;;9.36;85.78
52735;BME280;38631;47.572;10.704;2023-03-31T10:47:38;91455.88;;;9.39;85.15
52735;BME280;38631;47.572;10.704;2023-03-31T10:50:12;91459.00;;;9.41;86.59
52735;BME280;38631;47.572;10.704;2023-03-31T10:52:44;91466.03;;;9.58;83.78
52735;BME280;38631;47.572;10.704;2023-03-31T10:55:35;91442.34;;;9.74;84.50
52735;BME280;38631;47.572;10.704;2023-03-31T11:03:40;91500.25;;;9.84;80.79
52735;BME280;38631;47.572;10.704;2023-03-31T11:06:24;91529.34;;;9.93;79.48
52735;BME280;38631;47.572;10.704;2023-03-31T11:09:01;91517.81;;;9.56;82.79
52735;BME280;38631;47.572;10.704;2023-03-31T11:14:50;91513.81;;;9.20;88.62
52735;BME280;38631;47.572;10.704;2023-03-31T11:22:39;91496.00;;;8.78;83.31
52735;BME280;38631;47.572;10.704;2023-03-31T11:25:32;91495.09;;;8.95;81.04
52735;BME280;38631;47.572;10.704;2023-03-31T11:30:41;91463.69;;;9.15;76.87
52735;BME280;38631;47.572;10.704;2023-03-31T11:41:25;91413.78;;;9.25;75.31
52735;BME280;38631;47.572;10.704;2023-03-31T11:43:55;91413.81;;;9.38;73.18
52735;BME280;38631;47.572;10.704;2023-03-31T11:46:30;91426.53;;;9.44;74.50
52735;BME280;38631;47.572;10.704;2023-03-31T11:49:23;91421.59;;;9.55;73.36
52735;BME280;38631;47.572;10.704;2023-03-31T11:51:56;91389.94;;;9.59;70.65
52735;BME280;38631;47.572;10.704;2023-03-31T11:55:00;91393.50;;;9.75;70.95
52735;BME280;38631;47.572;10.704;2023-03-31T11:57:38;91398.72;;;9.71;70.95
52735;BME280;38631;47.572;10.704;2023-03-31T12:00:20;91389.66;;;9.72;71.25
52735;BME280;38631;47.572;10.704;2023-03-31T12:05:37;91382.84;;;9.84;69.46
52735;BME280;38631;47.572;10.704;2023-03-31T12:08:34;91338.75;;;9.79;72.16
52735;BME280;38631;47.572;10.704;2023-03-31T12:11:08;91341.69;;;9.65;72.37
52735;BME280;38631;47.572;10.704;2023-03-31T12:16:43;91333.31;;;9.63;72.00
52735;BME280;38631;47.572;10.704;2023-03-31T12:24:41;91317.28;;;9.60;71.41
52735;BME280;38631;47.572;10.704;2023-03-31T12:27:19;91352.72;;;9.55;71.29
52735;BME280;38631;47.572;10.704;2023-03-31T12:30:17;91352.75;;;9.67;70.89
52735;BME280;38631;47.572;10.704;2023-03-31T12:32:54;91354.66;;;9.79;70.09
52735;BME280;38631;47.572;10.704;2023-03-31T12:35:28;91384.84;;;9.99;68.58
52735;BME280;38631;47.572;10.704;2023-03-31T12:41:09;91439.66;;;9.20;73.91
52735;BME280;38631;47.572;10.704;2023-03-31T12:51:54;91431.50;;;8.06;86.57
52735;BME280;38631;47.572;10.704;2023-03-31T12:54:48;91415.97;;;8.05;86.04
52735;BME280;38631;47.572;10.704;2023-03-31T12:57:21;91423.03;;;8.30;88.52
52735;BME280;38631;47.572;10.704;2023-03-31T13:02:39;91424.69;;;7.96;89.33
52735;BME280;38631;47.572;10.704;2023-03-31T13:08:06;91400.22;;;7.61;92.68
52735;BME280;38631;47.572;10.704;2023-03-31T13:10:33;91391.25;;;7.53;90.90
52735;BME280;38631;47.572;10.704;2023-03-31T13:13:16;91404.88;;;7.73;90.66
52735;BME280;38631;47.572;10.704;2023-03-31T13:15:55;91409.66;;;7.79;90.36
52735;BME280;38631;47.572;10.704;2023-03-31T13:18:21;91407.47;;;7.82;89.43
52735;BME280;38631;47.572;10.704;2023-03-31T13:21:02;91406.41;;;7.83;90.69
52735;BME280;38631;47.572;10.704;2023-03-31T13:23:33;91412.63;;;7.78;90.05
52735;BME280;38631;47.572;10.704;2023-03-31T13:25:59;91401.00;;;7.62;89.46
52735;BME280;38631;47.572;10.704;2023-03-31T13:28:32;91391.66;;;7.64;89.69
52735;BME280;38631;47.572;10.704;2023-03-31T13:30:59;91393.03;;;7.79;89.96
52735;BME280;38631;47.572;10.704;2023-03-31T13:41:14;91398.97;;;8.23;85.66
52735;BME280;38631;47.572;10.704;2023-03-31T13:47:14;91439.75;;;8.13;87.97
52735;BME280;38631;47.572;10.704;2023-03-31T13:52:43;91411.69;;;7.74;95.05
52735;BME280;38631;47.572;10.704;2023-03-31T13:58:47;91423.25;;;7.61;97.64
52735;BME280;38631;47.572;10.704;2023-03-31T14:04:06;91429.72;;;7.81;99.11
52735;BME280;38631;47.572;10.704;2023-03-31T14:06:47;91455.06;;;7.64;97.16
52735;BME280;38631;47.572;10.704;2023-03-31T14:09:30;91443.28;;;7.53;97.81
52735;BME280;38631;47.572;10.704;2023-03-31T14:12:00;91435.06;;;7.46;98.69
52735;BME280;38631;47.572;10.704;2023-03-31T14:14:42;91439.84;;;7.61;97.18
52735;BME280;38631;47.572;10.704;2023-03-31T14:17:08;91422.69;;;7.85;97.81
52735;BME280;38631;47.572;10.704;2023-03-31T14:19:49;91442.63;;;7.65;96.48
52735;BME280;38631;47.572;10.704;2023-03-31T14:22:23;91415.91;;;7.66;95.98
52735;BME280;38631;47.572;10.704;2023-03-31T14:33:06;91368.56;;;7.52;97.55
52735;BME280;38631;47.572;10.704;2023-03-31T14:35:38;91379.34;;;7.77;94.74
52735;BME280;38631;47.572;10.704;2023-03-31T14:38:12;91350.13;;;7.82;92.68
52735;BME280;38631;47.572;10.704;2023-03-31T14:40:49;91351.91;;;7.99;89.33
52735;BME280;38631;47.572;10.704;2023-03-31T14:43:20;91363.72;;;8.10;88.78
52735;BME280;38631;47.572;10.704;2023-03-31T14:45:46;91352.44;;;8.22;88.05
52735;BME280;38631;47.572;10.704;2023-03-31T14:48:13;91335.66;;;8.48;76.59
52735;BME280;38631;47.572;10.704;2023-03-31T14:50:44;91326.38;;;8.62;74.27
52735;BME280;38631;47.572;10.704;2023-03-31T14:53:21;91320.09;;;8.76;70.70
52735;BME280;38631;47.572;10.704;2023-03-31T14:55:47;91324.41;;;8.80;72.26
52735;BME280;38631;47.572;10.704;2023-03-31T14:58:29;91329.06;;;8.83;72.12
52735;BME280;38631;47.572;10.704;2023-03-31T15:00:56;91337.75;;;8.84;71.59
52735;BME280;38631;47.572;10.704;2023-03-31T15:03:24;91348.94;;;8.90;69.89
52735;BME280;38631;47.572;10.704;2023-03-31T15:05:55;91333.50;;;8.92;71.49
52735;BME280;38631;47.572;10.704;2023-03-31T15:08:22;91337.69;;;8.93;72.55
52735;BME280;38631;47.572;10.704;2023-03-31T15:10:54;91357.06;;;9.05;71.01
52735;BME280;38631;47.572;10.704;2023-03-31T15:13:29;91361.56;;;9.05;71.11
52735;BME280;38631;47.572;10.704;2023-03-31T15:15:57;91372.69;;;8.98;71.75
52735;BME280;38631;47.572;10.704;2023-03-31T15:18:25;91395.25;;;8.75;74.08
52735;BME280;38631;47.572;10.704;2023-03-31T15:20:51;91395.84;;;8.59;76.19
52735;BME280;38631;47.572;10.704;2023-03-31T15:23:24;91402.41;;;8.53;76.94
52735;BME280;38631;47.572;10.704;2023-03-31T15:25:58;91414.06;;;8.52;74.88
52735;BME280;38631;47.572;10.704;2023-03-31T15:28:30;91392.59;;;8.54;76.86
52735;BME280;38631;47.572;10.704;2023-03-31T15:30:58;91379.56;;;8.49;74.53
52735;BME280;38631;47.572;10.704;2023-03-31T15:33:32;91358.47;;;8.61;69.26
52735;BME280;38631;47.572;10.704;2023-03-31T15:35:58;91347.25;;;8.64;64.41
52735;BME280;38631;47.572;10.704;2023-03-31T15:38:26;91344.72;;;8.68;65.05
52735;BME280;38631;47.572;10.704;2023-03-31T15:40:54;91335.00;;;8.80;61.32
52735;BME280;38631;47.572;10.704;2023-03-31T15:43:31;91314.59;;;8.81;59.81
52735;BME280;38631;47.572;10.704;2023-03-31T15:46:10;91307.41;;;8.81;60.10
52735;BME280;38631;47.572;10.704;2023-03-31T15:48:54;91307.41;;;8.81;58.79